KBAB/BAB METAR and TAF weather

Enter ICAO airport designator
Station Type Date Time Source
KBAB METAR 2020/04/05 19:19 UTC NOAA

KBAB 051919Z 19010KT 10SM -RA FEW035 OVC050 10/09 A2964 RMK AO2A LTG DSNT SE TSE19 SLP040 $


Station Type Date Time Source
KBAB Decoded METAR 2020/04/05 19:19 UTC NOAA

Marysville, Beale Air Force Base, CA, United States (KBAB) 39-08N 121-26W
Apr 05, 2020 - 03:19 PM EDT / 2020.04.05 1919 UTC
Wind: from the S (190 degrees) at 12 MPH (10 KT):0
Visibility: 10 mile(s):0
Sky conditions: overcast
Weather: light rain; Lightning observed
Temperature: 50 F (10 C)
Dew Point: 48 F (9 C)
Relative Humidity: 93%
Pressure (altimeter): 29.64 in. Hg (1003 hPa)
ob: KBAB 051919Z 19010KT 10SM -RA FEW035 OVC050 10/09 A2964 RMK AO2A LTG DSNT SE TSE19 SLP040
cycle: 19

Station Type Date Time Source
KBAB TAF 2020/04/03 22:45 UTC NOAA

TAF TAF
AMD KBAB 032240Z 0322/0501 VRB06KT 9999 FEW150 QNH2993INS
BECMG 0410/0411 15009KT 9999 FEW060 SCT085 QNH2986INS
BECMG 0416/0417 16009KT 9000 -SHRA FEW010 BKN015 OVC030 QNH2979INS
TEMPO 0419/0501 15010G15KT 8000 RA SCT010 OVC020
BECMG 0500/0501 VRB06KT 9999 VCSH SCT010 BKN030 QNH2976INS TX20/0323Z TN05/0414Z LAST NO
AMDS AFT 0323 NEXT 0613

Example: see airport list